createdAt,value
2022-10-05T00:00:48.332Z,8.80
2022-10-05T00:03:14.944Z,8.80
2022-10-05T00:05:41.722Z,8.80
2022-10-05T00:08:12.897Z,8.80
2022-10-05T00:10:41.389Z,8.80
2022-10-05T00:13:24.948Z,8.70
2022-10-05T00:15:57.409Z,8.70
2022-10-05T00:18:24.033Z,8.60
2022-10-05T00:20:50.626Z,8.50
2022-10-05T00:23:22.514Z,8.60
2022-10-05T00:25:49.327Z,8.70
2022-10-05T00:28:26.418Z,8.70
2022-10-05T00:30:57.124Z,8.60
2022-10-05T00:33:23.876Z,8.60
2022-10-05T00:35:50.504Z,8.60
2022-10-05T00:38:17.188Z,8.60
2022-10-05T00:41:04.894Z,8.60
2022-10-05T00:43:43.667Z,8.70
2022-10-05T00:46:19.693Z,8.70
2022-10-05T00:48:49.429Z,8.60
2022-10-05T00:51:19.136Z,8.60
2022-10-05T00:53:54.614Z,8.50
2022-10-05T00:56:33.110Z,8.50
2022-10-05T00:59:10.309Z,8.40
2022-10-05T01:01:40.753Z,8.30
2022-10-05T01:04:15.760Z,8.20
2022-10-05T01:06:42.561Z,8.20
2022-10-05T01:09:24.061Z,8.20
2022-10-05T01:12:06.104Z,8.10
2022-10-05T01:14:50.436Z,8.10
2022-10-05T01:17:22.230Z,8.10
2022-10-05T01:20:07.693Z,8.00
2022-10-05T01:22:42.986Z,8.10
2022-10-05T01:25:20.913Z,8.00
2022-10-05T01:27:57.683Z,8.10
2022-10-05T01:30:24.522Z,8.10
2022-10-05T01:32:54.111Z,8.10
2022-10-05T01:35:20.755Z,8.20
2022-10-05T01:37:54.366Z,8.20
2022-10-05T01:40:45.797Z,8.20
2022-10-05T01:43:12.388Z,8.20
2022-10-05T01:45:53.493Z,8.20
2022-10-05T01:48:20.156Z,8.20
2022-10-05T01:51:05.353Z,8.20
2022-10-05T01:53:47.261Z,8.30
2022-10-05T01:56:33.589Z,8.30
2022-10-05T01:59:06.450Z,8.30
2022-10-05T02:01:45.101Z,8.30
2022-10-05T02:04:13.395Z,8.30
2022-10-05T02:06:47.763Z,8.30
2022-10-05T02:09:25.049Z,8.40
2022-10-05T02:11:54.867Z,8.40
2022-10-05T02:14:24.286Z,8.40
2022-10-05T02:16:53.038Z,8.40
2022-10-05T02:19:35.729Z,8.40
2022-10-05T02:22:07.253Z,8.40
2022-10-05T02:24:42.584Z,8.40
2022-10-05T02:27:10.681Z,8.40
2022-10-05T02:29:41.793Z,8.30
2022-10-05T02:32:13.750Z,8.30
2022-10-05T02:34:41.705Z,8.20
2022-10-05T02:37:27.749Z,8.20
2022-10-05T02:39:58.002Z,8.10
2022-10-05T02:42:30.956Z,8.10
2022-10-05T02:45:07.442Z,8.00
2022-10-05T02:47:34.066Z,8.00
2022-10-05T02:50:07.655Z,8.00
2022-10-05T02:52:52.729Z,8.00
2022-10-05T02:55:22.040Z,7.90
2022-10-05T02:58:03.529Z,7.90
2022-10-05T03:00:36.855Z,7.90
2022-10-05T03:03:10.438Z,7.90
2022-10-05T03:05:43.370Z,7.90
2022-10-05T03:08:17.494Z,8.00
2022-10-05T03:11:08.112Z,8.00
2022-10-05T03:13:50.138Z,8.10
2022-10-05T03:16:37.784Z,8.10
2022-10-05T03:19:14.223Z,8.10
2022-10-05T03:21:41.249Z,8.00
2022-10-05T03:24:09.242Z,8.10
2022-10-05T03:26:45.562Z,8.20
2022-10-05T03:29:31.280Z,8.00
2022-10-05T03:32:16.966Z,8.00
2022-10-05T03:34:59.998Z,8.00
2022-10-05T03:37:30.021Z,8.00
2022-10-05T03:40:09.731Z,7.90
2022-10-05T03:42:40.148Z,7.90
2022-10-05T03:45:14.267Z,7.90
2022-10-05T03:47:52.022Z,7.90
2022-10-05T03:50:18.641Z,7.90
2022-10-05T03:52:47.613Z,7.90
2022-10-05T03:55:21.042Z,7.90
2022-10-05T03:57:48.750Z,7.90
2022-10-05T04:00:25.864Z,7.90
2022-10-05T04:03:12.241Z,7.90
2022-10-05T04:05:50.499Z,7.80
2022-10-05T04:08:35.472Z,7.80
2022-10-05T04:11:05.961Z,7.80
2022-10-05T04:13:36.699Z,7.80
2022-10-05T04:16:12.050Z,7.70
2022-10-05T04:18:59.029Z,7.70
2022-10-05T04:21:40.278Z,7.70
2022-10-05T04:24:18.259Z,7.70
2022-10-05T04:26:51.336Z,7.70
2022-10-05T04:29:21.169Z,7.70
2022-10-05T04:31:55.804Z,7.60
2022-10-05T04:34:22.506Z,7.60
2022-10-05T04:36:55.098Z,7.60
2022-10-05T04:39:45.214Z,7.50
2022-10-05T04:42:12.121Z,7.50
2022-10-05T04:44:48.157Z,7.80
2022-10-05T04:47:15.481Z,7.50
2022-10-05T04:49:50.675Z,7.40
2022-10-05T04:52:20.539Z,7.40
2022-10-05T04:54:56.611Z,7.30
2022-10-05T04:57:32.678Z,7.30
2022-10-05T05:00:05.774Z,7.30
2022-10-05T05:02:34.593Z,7.40
2022-10-05T05:05:16.485Z,7.40
2022-10-05T05:07:55.372Z,7.40
2022-10-05T05:10:22.308Z,7.40
2022-10-05T05:13:10.617Z,7.50
2022-10-05T05:15:37.238Z,7.50
2022-10-05T05:18:03.856Z,7.50
2022-10-05T05:20:41.991Z,7.40
2022-10-05T05:23:08.806Z,7.40
2022-10-05T05:25:46.946Z,7.40
2022-10-05T05:28:35.862Z,7.40
2022-10-05T05:31:09.417Z,7.40
2022-10-05T05:33:43.392Z,7.50
2022-10-05T05:36:10.102Z,7.50
2022-10-05T05:38:37.623Z,7.50
2022-10-05T05:41:09.118Z,7.50
2022-10-05T05:43:56.410Z,7.60
2022-10-05T05:46:39.134Z,7.60
2022-10-05T05:49:24.110Z,7.50
2022-10-05T05:52:14.148Z,7.60
2022-10-05T05:54:43.026Z,7.60
2022-10-05T05:57:19.026Z,7.60
2022-10-05T05:59:52.121Z,7.60
2022-10-05T06:02:21.880Z,7.60
2022-10-05T06:04:54.584Z,7.60
2022-10-05T06:07:30.204Z,7.60
2022-10-05T06:10:04.796Z,7.60
2022-10-05T06:12:46.652Z,7.60
2022-10-05T06:15:27.246Z,7.70
2022-10-05T06:17:55.881Z,7.60
2022-10-05T06:20:29.646Z,7.60
2022-10-05T06:22:59.935Z,7.60
2022-10-05T06:25:37.125Z,7.70
2022-10-05T06:28:11.344Z,7.80
2022-10-05T06:31:00.363Z,7.80
2022-10-05T06:33:42.674Z,7.80
2022-10-05T06:36:10.005Z,7.80
2022-10-05T06:38:55.809Z,7.80
2022-10-05T06:41:32.901Z,7.80
2022-10-05T06:44:10.340Z,7.90
2022-10-05T06:46:58.108Z,8.10
2022-10-05T06:49:55.532Z,8.20
2022-10-05T06:52:42.875Z,8.40
2022-10-05T06:55:15.532Z,8.40
2022-10-05T06:57:48.974Z,8.50
2022-10-05T07:00:21.173Z,8.60
2022-10-05T07:02:56.165Z,8.70
2022-10-05T07:05:22.798Z,8.90
2022-10-05T07:07:53.544Z,8.90
2022-10-05T07:10:40.415Z,9.00
2022-10-05T07:13:15.716Z,9.10
2022-10-05T07:15:45.394Z,9.30
2022-10-05T07:18:16.269Z,9.40
2022-10-05T07:20:49.389Z,9.50
2022-10-05T07:23:24.837Z,9.60
2022-10-05T07:26:00.093Z,9.70
2022-10-05T07:28:47.548Z,9.90
2022-10-05T07:31:29.174Z,10.00
2022-10-05T07:34:00.709Z,10.00
2022-10-05T07:37:24.489Z,10.10
2022-10-05T07:40:04.763Z,10.20
2022-10-05T07:42:48.952Z,10.20
2022-10-05T07:45:38.713Z,10.30
2022-10-05T07:48:12.179Z,10.40
2022-10-05T07:50:43.740Z,10.60
2022-10-05T07:53:16.054Z,10.70
2022-10-05T07:55:47.022Z,10.90
2022-10-05T07:58:25.054Z,11.00
2022-10-05T08:00:52.101Z,11.10
2022-10-05T08:03:31.949Z,11.20
2022-10-05T08:05:59.652Z,11.30
2022-10-05T08:08:44.975Z,11.50
2022-10-05T08:11:14.822Z,11.50
2022-10-05T08:13:53.973Z,11.50
2022-10-05T08:16:22.079Z,11.50
2022-10-05T08:18:56.676Z,11.70
2022-10-05T08:21:27.443Z,11.70
2022-10-05T08:24:04.661Z,11.70
2022-10-05T08:26:43.206Z,11.80
2022-10-05T08:29:13.821Z,11.90
2022-10-05T08:31:41.916Z,12.00
2022-10-05T08:34:31.077Z,12.10
2022-10-05T08:37:05.002Z,12.30
2022-10-05T08:39:40.354Z,12.40
2022-10-05T08:42:19.097Z,12.60
2022-10-05T08:44:57.916Z,12.70
2022-10-05T08:47:37.166Z,12.80
2022-10-05T08:50:22.543Z,13.00
2022-10-05T08:52:52.200Z,13.00
2022-10-05T08:55:38.266Z,13.00
2022-10-05T08:58:17.060Z,13.20
2022-10-05T09:00:46.650Z,13.30
2022-10-05T09:03:13.223Z,13.40
2022-10-05T09:05:58.814Z,13.40
2022-10-05T09:08:34.887Z,13.60
2022-10-05T09:11:21.743Z,13.80
2022-10-05T09:14:07.289Z,14.00
2022-10-05T09:16:43.139Z,14.00
2022-10-05T09:19:28.541Z,14.10
2022-10-05T09:21:55.119Z,14.30
2022-10-05T09:24:34.465Z,14.40
2022-10-05T09:27:13.953Z,14.50
2022-10-05T09:30:05.506Z,14.70
2022-10-05T09:32:44.142Z,14.80
2022-10-05T09:35:21.705Z,14.90
2022-10-05T09:37:54.218Z,14.90
2022-10-05T09:40:41.475Z,14.80
2022-10-05T09:43:26.922Z,14.80
2022-10-05T09:46:08.735Z,14.90
2022-10-05T09:48:46.257Z,15.20
2022-10-05T09:51:48.765Z,15.50
2022-10-05T09:54:18.453Z,15.50
2022-10-05T09:56:48.244Z,15.50
2022-10-05T09:59:35.001Z,15.70
2022-10-05T10:02:11.863Z,15.80
2022-10-05T10:04:38.456Z,15.80
2022-10-05T10:07:05.142Z,16.00
2022-10-05T10:09:38.516Z,16.10
2022-10-05T10:12:23.432Z,16.10
2022-10-05T10:15:09.343Z,16.30
2022-10-05T10:17:55.131Z,16.40
2022-10-05T10:20:22.538Z,16.30
2022-10-05T10:23:13.051Z,16.30
2022-10-05T10:25:55.004Z,16.30
2022-10-05T10:28:48.094Z,16.20
2022-10-05T10:31:23.587Z,16.40
2022-10-05T10:33:50.168Z,16.50
2022-10-05T10:36:18.912Z,16.70
2022-10-05T10:38:54.708Z,16.80
2022-10-05T10:41:27.580Z,16.90
2022-10-05T10:44:03.409Z,17.00
2022-10-05T10:46:45.501Z,16.90
2022-10-05T10:49:30.852Z,16.90
2022-10-05T10:52:09.836Z,17.10
2022-10-05T10:54:47.031Z,17.10
2022-10-05T10:57:16.779Z,17.10
2022-10-05T10:59:43.457Z,17.20
2022-10-05T11:02:33.193Z,17.40
2022-10-05T11:05:08.112Z,17.70
2022-10-05T11:07:40.772Z,17.80
2022-10-05T11:10:26.036Z,17.80
2022-10-05T11:13:11.480Z,17.80
2022-10-05T11:15:56.307Z,18.00
2022-10-05T11:18:49.612Z,18.00
2022-10-05T11:21:36.495Z,17.90
2022-10-05T11:24:22.140Z,18.00
2022-10-05T11:27:05.727Z,18.00
2022-10-05T11:29:59.270Z,18.10
2022-10-05T11:32:46.436Z,18.10
2022-10-05T11:35:31.853Z,18.20
2022-10-05T11:38:17.314Z,18.20
2022-10-05T11:41:02.096Z,18.30
2022-10-05T11:43:28.944Z,18.30
2022-10-05T11:46:00.635Z,18.20
2022-10-05T11:48:46.560Z,18.40
2022-10-05T11:51:30.158Z,18.50
2022-10-05T11:54:09.364Z,18.70
2022-10-05T11:56:40.011Z,18.80
2022-10-05T11:59:26.555Z,18.90
2022-10-05T12:01:58.981Z,19.00
2022-10-05T12:04:36.376Z,19.00
2022-10-05T12:07:09.341Z,19.00
2022-10-05T12:10:14.524Z,18.90
2022-10-05T12:12:49.871Z,19.00
2022-10-05T12:15:19.490Z,19.30
2022-10-05T12:18:00.025Z,19.50
2022-10-05T12:20:37.954Z,19.70
2022-10-05T12:23:10.748Z,19.80
2022-10-05T12:26:11.039Z,19.90
2022-10-05T12:28:42.299Z,19.80
2022-10-05T12:31:14.799Z,19.90
2022-10-05T12:33:50.586Z,19.90
2022-10-05T12:36:19.542Z,20.10
2022-10-05T12:38:52.314Z,20.00
2022-10-05T12:41:18.960Z,20.00
2022-10-05T12:43:51.461Z,20.10
2022-10-05T12:46:24.236Z,20.30
2022-10-05T12:48:52.521Z,20.40
2022-10-05T12:51:37.904Z,20.40
2022-10-05T12:54:19.561Z,20.60
2022-10-05T12:56:49.248Z,20.60
2022-10-05T12:59:39.004Z,20.80
2022-10-05T13:02:21.143Z,20.80
2022-10-05T13:04:47.744Z,20.90
2022-10-05T13:07:33.418Z,20.90
2022-10-05T13:10:18.556Z,21.00
2022-10-05T13:12:57.417Z,21.20
2022-10-05T13:15:28.658Z,21.30
2022-10-05T13:18:01.278Z,21.40
2022-10-05T13:20:43.134Z,21.50
2022-10-05T13:23:13.805Z,21.70
2022-10-05T13:25:45.117Z,21.70
2022-10-05T13:28:21.674Z,21.50
2022-10-05T13:31:08.922Z,21.50
2022-10-05T13:33:54.080Z,21.60
2022-10-05T13:36:26.826Z,21.70
2022-10-05T13:38:57.937Z,21.80
2022-10-05T13:41:24.529Z,21.70
2022-10-05T13:44:10.421Z,21.70
2022-10-05T13:46:47.973Z,21.70
2022-10-05T13:49:28.853Z,21.70
2022-10-05T13:52:14.485Z,21.30
2022-10-05T13:54:59.849Z,21.40
2022-10-05T13:57:26.423Z,21.50
2022-10-05T14:00:13.277Z,21.50
2022-10-05T14:02:41.621Z,21.50
2022-10-05T14:05:14.805Z,21.70
2022-10-05T14:07:53.385Z,21.60
2022-10-05T14:10:35.294Z,21.70
2022-10-05T14:13:09.144Z,21.70
2022-10-05T14:15:41.269Z,21.70
2022-10-05T14:18:23.091Z,21.70
2022-10-05T14:20:58.709Z,21.70
2022-10-05T14:23:26.896Z,21.60
2022-10-05T14:25:54.313Z,21.50
2022-10-05T14:28:24.221Z,21.40
2022-10-05T14:30:59.273Z,21.30
2022-10-05T14:33:27.606Z,21.10
2022-10-05T14:35:55.920Z,21.00
2022-10-05T14:38:22.641Z,21.00
2022-10-05T14:41:07.747Z,20.90
2022-10-05T14:43:34.855Z,20.80
2022-10-05T14:46:03.411Z,20.70
2022-10-05T14:48:41.028Z,20.50
2022-10-05T14:51:11.578Z,20.40
2022-10-05T14:53:38.435Z,20.40
2022-10-05T14:56:23.849Z,20.30
2022-10-05T14:58:59.741Z,20.30
2022-10-05T15:01:27.611Z,20.30
2022-10-05T15:03:54.279Z,20.20
2022-10-05T15:06:34.343Z,20.10
2022-10-05T15:09:36.536Z,20.10
2022-10-05T15:12:03.513Z,20.00
2022-10-05T15:14:31.846Z,19.90
2022-10-05T15:17:02.394Z,19.80
2022-10-05T15:19:38.676Z,19.70
2022-10-05T15:22:05.651Z,19.70
2022-10-05T15:24:42.690Z,19.60
2022-10-05T15:27:15.447Z,19.50
2022-10-05T15:29:51.212Z,19.30
2022-10-05T15:32:23.461Z,19.20
2022-10-05T15:35:04.017Z,19.00
2022-10-05T15:37:44.327Z,19.00
2022-10-05T15:40:23.332Z,18.90
2022-10-05T15:42:53.186Z,18.70
2022-10-05T15:45:37.591Z,18.40
2022-10-05T15:48:19.971Z,18.20
2022-10-05T15:51:08.161Z,18.00
2022-10-05T15:53:43.510Z,17.90
2022-10-05T15:56:16.030Z,17.80
2022-10-05T15:58:42.751Z,17.70
2022-10-05T16:01:17.747Z,17.60
2022-10-05T16:03:47.877Z,17.50
2022-10-05T16:06:38.554Z,17.40
2022-10-05T16:09:14.048Z,17.40
2022-10-05T16:11:51.540Z,17.30
2022-10-05T16:14:27.971Z,17.20
2022-10-05T16:17:06.085Z,17.10
2022-10-05T16:19:51.685Z,17.00
2022-10-05T16:22:41.160Z,16.80
2022-10-05T16:25:25.057Z,16.70
2022-10-05T16:27:52.521Z,16.60
2022-10-05T16:30:20.866Z,16.50
2022-10-05T16:32:59.239Z,16.40
2022-10-05T16:35:32.085Z,16.30
2022-10-05T16:38:17.107Z,16.30
2022-10-05T16:40:43.692Z,16.20
2022-10-05T16:43:29.095Z,16.10
2022-10-05T16:46:01.947Z,16.10
2022-10-05T16:48:29.478Z,16.10
2022-10-05T16:51:02.114Z,16.00
2022-10-05T16:53:40.126Z,15.90
2022-10-05T16:56:11.105Z,15.80
2022-10-05T16:58:56.306Z,15.80
2022-10-05T17:01:39.738Z,15.70
2022-10-05T17:04:19.796Z,15.60
2022-10-05T17:06:57.897Z,15.60
2022-10-05T17:12:26.697Z,15.40
2022-10-05T17:15:11.298Z,15.40
2022-10-05T17:17:59.133Z,15.30
2022-10-05T17:20:50.635Z,15.30
2022-10-05T17:23:23.482Z,15.20
2022-10-05T17:25:58.332Z,15.10
2022-10-05T17:28:57.378Z,15.10
2022-10-05T17:31:25.746Z,15.00
2022-10-05T17:34:26.507Z,15.00
2022-10-05T17:37:16.027Z,14.90
2022-10-05T17:39:49.891Z,14.80
2022-10-05T17:42:34.128Z,14.70
2022-10-05T17:45:20.748Z,14.70
2022-10-05T17:48:01.446Z,14.40
2022-10-05T17:51:04.592Z,14.50
2022-10-05T17:53:52.546Z,14.50
2022-10-05T17:56:20.679Z,14.50
2022-10-05T17:58:47.307Z,14.40
2022-10-05T18:01:29.403Z,14.40
2022-10-05T18:04:16.099Z,14.40
2022-10-05T18:06:47.527Z,14.40
2022-10-05T18:09:16.797Z,14.40
2022-10-05T18:11:45.745Z,14.30
2022-10-05T18:14:24.633Z,14.20
2022-10-05T18:17:12.146Z,14.20
2022-10-05T18:19:39.523Z,14.10
2022-10-05T18:22:18.069Z,14.00
2022-10-05T18:25:05.891Z,13.90
2022-10-05T18:28:03.836Z,13.90
2022-10-05T18:30:44.585Z,13.90
2022-10-05T18:33:20.986Z,13.80
2022-10-05T18:36:02.421Z,13.80
2022-10-05T18:38:51.270Z,13.70
2022-10-05T18:41:24.011Z,13.70
2022-10-05T18:44:12.169Z,13.70
2022-10-05T18:46:50.297Z,13.60
2022-10-05T18:50:02.034Z,13.60
2022-10-05T18:52:41.582Z,13.60
2022-10-05T18:55:33.286Z,13.60
2022-10-05T18:58:36.701Z,13.50
2022-10-05T19:01:20.610Z,13.50
2022-10-05T19:04:22.477Z,13.40
2022-10-05T19:07:07.440Z,13.40
2022-10-05T19:09:45.453Z,13.40
2022-10-05T19:12:41.497Z,13.40
2022-10-05T19:15:46.424Z,13.30
2022-10-05T19:18:40.585Z,13.30
2022-10-05T19:21:18.444Z,13.20
2022-10-05T19:24:04.376Z,13.20
2022-10-05T19:27:00.298Z,13.10
2022-10-05T19:30:05.028Z,13.00
2022-10-05T19:33:10.654Z,12.80
2022-10-05T19:36:25.056Z,12.70
2022-10-05T19:39:11.941Z,12.70
2022-10-05T19:41:59.466Z,12.70
2022-10-05T19:44:39.027Z,12.70
2022-10-05T19:47:40.279Z,12.70
2022-10-05T19:50:27.740Z,12.70
2022-10-05T19:53:11.194Z,12.70
2022-10-05T19:55:41.646Z,12.60
2022-10-05T19:58:24.424Z,12.60
2022-10-05T20:01:04.192Z,12.60
2022-10-05T20:03:32.853Z,12.60
2022-10-05T20:06:01.736Z,12.60
2022-10-05T20:08:39.374Z,12.60
2022-10-05T20:11:29.218Z,12.50
2022-10-05T20:13:59.658Z,12.50
2022-10-05T20:16:56.736Z,12.40
2022-10-05T20:19:36.595Z,12.40
2022-10-05T20:22:35.327Z,12.30
2022-10-05T20:25:28.700Z,12.40
2022-10-05T20:27:56.846Z,12.40
2022-10-05T20:30:27.419Z,12.40
2022-10-05T20:32:59.622Z,12.40
2022-10-05T20:35:30.486Z,12.40
2022-10-05T20:38:00.916Z,12.40
2022-10-05T20:40:29.175Z,12.40
2022-10-05T20:42:56.902Z,12.40
2022-10-05T20:45:23.685Z,12.30
2022-10-05T20:47:50.732Z,12.30
2022-10-05T20:50:17.742Z,12.30
2022-10-05T20:52:44.579Z,12.30
2022-10-05T20:55:12.115Z,12.20
2022-10-05T20:57:41.844Z,12.10
2022-10-05T21:00:11.206Z,12.10
2022-10-05T21:02:39.490Z,12.00
2022-10-05T21:05:07.464Z,11.90
2022-10-05T21:07:34.432Z,11.80
2022-10-05T21:10:03.596Z,11.60
2022-10-05T21:12:30.393Z,11.70
2022-10-05T21:14:57.393Z,11.70
2022-10-05T21:17:24.087Z,11.70
2022-10-05T21:19:51.580Z,11.60
2022-10-05T21:22:18.327Z,11.50
2022-10-05T21:24:45.708Z,11.40
2022-10-05T21:27:12.509Z,11.40
2022-10-05T21:29:41.117Z,11.40
2022-10-05T21:32:11.335Z,11.30
2022-10-05T21:34:39.499Z,11.20
2022-10-05T21:37:06.768Z,11.20
2022-10-05T21:39:34.604Z,11.10
2022-10-05T21:42:01.574Z,10.90
2022-10-05T21:44:28.298Z,10.80
2022-10-05T21:46:56.174Z,10.80
2022-10-05T21:49:23.731Z,10.80
2022-10-05T21:51:50.583Z,10.80
2022-10-05T21:54:21.000Z,10.80
2022-10-05T21:56:51.418Z,10.90
2022-10-05T21:59:22.043Z,10.80
2022-10-05T22:01:49.148Z,11.00
2022-10-05T22:04:16.012Z,10.90
2022-10-05T22:06:42.765Z,11.00
2022-10-05T22:09:09.542Z,11.10
2022-10-05T22:11:36.429Z,11.20
2022-10-05T22:14:03.256Z,11.10
2022-10-05T22:16:38.490Z,11.00
2022-10-05T22:19:10.446Z,10.90
2022-10-05T22:21:41.359Z,10.80
2022-10-05T22:24:09.143Z,10.80
2022-10-05T22:26:36.046Z,10.80
2022-10-05T22:29:03.363Z,10.60
2022-10-05T22:31:30.182Z,10.50
2022-10-05T22:33:57.137Z,10.40
2022-10-05T22:36:23.961Z,10.30
2022-10-05T22:38:50.654Z,10.20
2022-10-05T22:41:18.368Z,10.20
2022-10-05T22:43:48.582Z,10.20
2022-10-05T22:46:15.356Z,10.10
2022-10-05T22:48:42.302Z,10.20
2022-10-05T22:51:09.076Z,10.00
2022-10-05T22:53:36.039Z,10.00
2022-10-05T22:56:08.716Z,10.00
2022-10-05T22:58:36.350Z,10.00
2022-10-05T23:01:06.242Z,10.00
2022-10-05T23:03:33.675Z,10.00
2022-10-05T23:06:03.096Z,10.10
2022-10-05T23:08:31.388Z,10.10
2022-10-05T23:11:13.305Z,10.10
2022-10-05T23:13:40.551Z,10.00
2022-10-05T23:16:10.476Z,9.90
2022-10-05T23:18:37.561Z,9.80
2022-10-05T23:21:07.374Z,9.70
2022-10-05T23:23:38.497Z,9.60
2022-10-05T23:26:07.079Z,9.60
2022-10-05T23:28:34.590Z,9.60
2022-10-05T23:31:05.040Z,9.60
2022-10-05T23:33:32.558Z,9.60
2022-10-05T23:36:08.062Z,9.60
2022-10-05T23:38:35.670Z,9.60
2022-10-05T23:41:02.771Z,9.70
2022-10-05T23:43:29.738Z,9.60
2022-10-05T23:45:56.697Z,9.60
2022-10-05T23:48:23.585Z,9.60
2022-10-05T23:50:50.410Z,9.60
2022-10-05T23:53:17.902Z,9.60
2022-10-05T23:55:45.195Z,9.50
2022-10-05T23:58:12.296Z,9.50
